Time;durP1;ratioP1;P1;durP2;ratioP2;P2;SDS_P1;SDS_P2;PMS_P1;PMS_P2;Temp;Humidity;BMP_temperature;BMP_pressure;BME280_temperature;BME280_humidity;BME280_pressure;Samples;Min_cycle;Max_cycle;Signal;HPM_P1;HPM_P2
2023/07/16 00:01:02;;;;;;;9.63;2.00;;;16.00;99.90;;;;;;5058356;28;20382;-80
2023/07/16 00:03:28;;;;;;;11.88;2.50;;;16.00;99.90;;;;;;5058033;28;20036;-84
2023/07/16 00:05:57;;;;;;;11.88;2.20;;;16.10;99.90;;;;;;5057696;28;20048;-83
2023/07/16 00:08:24;;;;;;;10.82;2.13;;;16.10;99.90;;;;;;5057998;28;20391;-84
2023/07/16 00:10:51;;;;;;;9.13;1.92;;;16.00;99.90;;;;;;5057990;28;20055;-81
2023/07/16 00:13:17;;;;;;;11.48;2.10;;;16.10;99.90;;;;;;5055992;28;20072;-81
2023/07/16 00:15:45;;;;;;;9.93;1.58;;;16.00;99.90;;;;;;5057193;28;20143;-81
2023/07/16 00:18:12;;;;;;;13.57;2.70;;;16.00;99.90;;;;;;5057008;28;20048;-84
2023/07/16 00:20:39;;;;;;;9.98;2.17;;;16.10;99.90;;;;;;5075614;28;20047;-82
2023/07/16 00:23:05;;;;;;;12.55;2.20;;;16.10;99.90;;;;;;5075109;28;20119;-81
2023/07/16 00:25:35;;;;;;;14.30;2.75;;;16.10;99.90;;;;;;5074447;28;20090;-83
2023/07/16 00:28:02;;;;;;;8.23;1.60;;;16.20;99.90;;;;;;5057302;28;20037;-83
2023/07/16 00:30:30;;;;;;;12.63;2.25;;;16.20;99.90;;;;;;5057930;28;20043;-82
2023/07/16 00:32:57;;;;;;;17.77;2.35;;;16.20;99.90;;;;;;5074175;28;20041;-82
2023/07/16 00:35:26;;;;;;;9.32;2.13;;;16.10;99.90;;;;;;5057627;28;20064;-82
2023/07/16 00:37:53;;;;;;;12.68;2.53;;;16.10;99.90;;;;;;5041064;28;20071;-82
2023/07/16 00:40:20;;;;;;;14.07;2.15;;;16.10;99.90;;;;;;5056622;28;20406;-81
2023/07/16 00:42:46;;;;;;;9.80;2.10;;;16.00;99.90;;;;;;5057109;28;20121;-83
2023/07/16 00:45:17;;;;;;;16.02;3.10;;;16.00;99.90;;;;;;5040154;28;20094;-82
2023/07/16 00:47:43;;;;;;;14.73;2.20;;;16.00;99.90;;;;;;5057217;28;20112;-82
2023/07/16 00:50:10;;;;;;;17.08;2.42;;;15.90;99.90;;;;;;5057459;28;20064;-84
2023/07/16 00:52:37;;;;;;;14.40;2.65;;;15.90;99.90;;;;;;5056455;28;20135;-80
2023/07/16 00:55:05;;;;;;;18.38;2.60;;;15.90;99.90;;;;;;5057127;28;20036;-80
2023/07/16 00:57:31;;;;;;;11.52;2.60;;;15.90;99.90;;;;;;5040769;28;20048;-81
2023/07/16 00:59:58;;;;;;;9.55;2.03;;;15.90;99.90;;;;;;5056349;28;20063;-83
2023/07/16 01:02:25;;;;;;;11.25;1.88;;;15.90;99.90;;;;;;5074435;28;20044;-85
2023/07/16 01:04:51;;;;;;;12.68;2.90;;;16.00;99.90;;;;;;5056158;28;20040;-85
2023/07/16 01:07:21;;;;;;;11.85;2.00;;;16.00;99.90;;;;;;5057064;28;20127;-82
2023/07/16 01:09:49;;;;;;;17.17;2.42;;;15.90;99.90;;;;;;5057257;28;20056;-85
2023/07/16 01:12:17;;;;;;;10.63;2.10;;;15.90;99.90;;;;;;5040302;28;20036;-84
2023/07/16 01:14:44;;;;;;;10.00;2.20;;;15.90;99.90;;;;;;5074729;28;20045;-84
2023/07/16 01:19:56;;;;;;;10.73;2.40;;;15.90;99.90;;;;;;5073597;28;20182;-84
2023/07/16 01:22:23;;;;;;;13.43;2.28;;;15.80;99.90;;;;;;5056865;28;20064;-81
2023/07/16 01:24:50;;;;;;;8.75;2.50;;;15.80;99.90;;;;;;5073707;28;20062;-84
2023/07/16 01:27:17;;;;;;;12.38;1.90;;;15.80;99.90;;;;;;5057081;28;20040;-83
2023/07/16 01:29:43;;;;;;;7.03;1.92;;;15.80;99.90;;;;;;5057214;28;20056;-84
2023/07/16 01:32:11;;;;;;;13.32;2.42;;;15.80;99.90;;;;;;5059644;28;20097;-81
2023/07/16 01:34:38;;;;;;;13.25;2.55;;;15.80;99.90;;;;;;5095872;28;20050;-81
2023/07/16 01:37:05;;;;;;;16.90;2.38;;;15.80;99.90;;;;;;5080905;28;20047;-81
2023/07/16 01:39:35;;;;;;;17.98;2.75;;;15.80;99.90;;;;;;5062936;28;20055;-82
2023/07/16 01:42:02;;;;;;;20.58;2.65;;;15.80;99.90;;;;;;5098666;28;20123;-83
2023/07/16 01:44:29;;;;;;;9.82;2.35;;;15.70;99.90;;;;;;5071409;28;20474;-83
2023/07/16 01:46:57;;;;;;;15.95;2.28;;;15.80;99.90;;;;;;5058956;28;20360;-83
2023/07/16 01:49:25;;;;;;;13.43;2.10;;;15.80;99.90;;;;;;5060614;28;20446;-83
2023/07/16 01:51:53;;;;;;;14.93;2.33;;;15.90;99.90;;;;;;5043249;28;20497;-81
2023/07/16 01:54:20;;;;;;;12.48;2.78;;;15.90;99.90;;;;;;5078071;28;20064;-81
2023/07/16 01:56:48;;;;;;;15.18;3.55;;;15.90;99.90;;;;;;5078009;28;20068;-83
2023/07/16 01:59:15;;;;;;;12.73;2.47;;;15.90;99.90;;;;;;5059713;28;20368;-83
2023/07/16 02:01:42;;;;;;;9.60;2.63;;;15.90;99.90;;;;;;5060770;28;20408;-80
2023/07/16 02:04:09;;;;;;;12.90;2.92;;;15.80;99.90;;;;;;5078272;28;20349;-81
2023/07/16 02:06:37;;;;;;;14.40;2.45;;;15.70;99.90;;;;;;5059033;28;20033;-82
2023/07/16 02:09:03;;;;;;;13.90;2.67;;;15.70;99.90;;;;;;5060359;28;20044;-85
2023/07/16 02:11:30;;;;;;;11.95;2.53;;;15.70;99.90;;;;;;5059687;28;20064;-82
2023/07/16 02:13:57;;;;;;;11.88;2.72;;;15.60;99.90;;;;;;5060084;28;20052;-82
2023/07/16 02:16:23;;;;;;;16.73;2.97;;;15.60;99.90;;;;;;5059834;28;20041;-82
2023/07/16 02:18:50;;;;;;;23.65;2.67;;;15.60;99.90;;;;;;5042930;28;20063;-84
2023/07/16 02:21:18;;;;;;;23.88;3.25;;;15.60;99.90;;;;;;5059898;28;20044;-83
2023/07/16 02:23:44;;;;;;;7.97;1.85;;;15.60;99.90;;;;;;5077782;28;20447;-84
2023/07/16 02:26:13;;;;;;;15.82;2.67;;;15.60;99.90;;;;;;5058765;28;20079;-83
2023/07/16 02:28:41;;;;;;;12.05;3.47;;;15.60;99.90;;;;;;5077506;28;20033;-84
2023/07/16 02:31:08;;;;;;;11.25;2.40;;;15.60;99.90;;;;;;5077339;28;20060;-80
2023/07/16 02:33:35;;;;;;;20.45;2.83;;;15.60;99.90;;;;;;5059427;28;20048;-83
2023/07/16 02:38:48;;;;;;;13.52;2.42;;;15.60;99.90;;;;;;5058699;28;20135;-83
2023/07/16 02:41:15;;;;;;;13.38;2.42;;;15.60;99.90;;;;;;5043197;28;20041;-81
2023/07/16 02:43:42;;;;;;;14.63;2.22;;;15.60;99.90;;;;;;5059734;28;20090;-82
2023/07/16 02:48:54;;;;;;;16.95;2.85;;;15.60;99.90;;;;;;5077363;28;20040;-83
2023/07/16 02:51:21;;;;;;;13.00;2.40;;;15.60;99.90;;;;;;5076209;28;20064;-82
2023/07/16 02:53:48;;;;;;;13.98;2.95;;;15.60;99.90;;;;;;5059634;28;20055;-83
2023/07/16 02:56:17;;;;;;;14.60;2.58;;;15.50;99.90;;;;;;5076867;28;20041;-82
2023/07/16 02:58:44;;;;;;;10.88;2.10;;;15.50;99.90;;;;;;5058760;28;20390;-82
2023/07/16 03:01:10;;;;;;;19.13;3.03;;;15.40;99.90;;;;;;5059401;28;20044;-81
2023/07/16 03:03:37;;;;;;;18.73;2.78;;;15.40;99.90;;;;;;5042995;28;20058;-83
2023/07/16 03:08:34;;;;;;;10.07;2.17;;;15.30;99.90;;;;;;5076995;28;20406;-82
2023/07/16 03:11:00;;;;;;;17.40;2.45;;;15.30;99.90;;;;;;5076669;28;20064;-81
2023/07/16 03:13:27;;;;;;;13.93;2.90;;;15.20;99.90;;;;;;5042018;28;20472;-81
2023/07/16 03:15:56;;;;;;;14.32;2.90;;;15.20;99.90;;;;;;5058972;28;20063;-84
2023/07/16 03:18:23;;;;;;;11.10;2.05;;;15.20;99.90;;;;;;5058395;28;20045;-81
2023/07/16 03:20:49;;;;;;;14.68;2.35;;;15.30;99.90;;;;;;5059345;28;20036;-82
2023/07/16 03:23:16;;;;;;;14.95;2.67;;;15.30;99.90;;;;;;5042422;28;20044;-82
2023/07/16 03:25:43;;;;;;;16.65;2.30;;;15.20;99.90;;;;;;5041594;28;20051;-80
2023/07/16 03:28:10;;;;;;;12.50;2.42;;;15.20;99.90;;;;;;5058723;28;20082;-84
2023/07/16 03:30:37;;;;;;;19.77;2.63;;;15.20;99.90;;;;;;5042325;28;20047;-84
2023/07/16 03:33:04;;;;;;;10.60;2.20;;;15.10;99.90;;;;;;5057853;28;20055;-81
2023/07/16 03:35:31;;;;;;;20.40;2.95;;;15.10;99.90;;;;;;5075825;28;20048;-83
2023/07/16 03:37:58;;;;;;;13.10;2.60;;;15.00;99.90;;;;;;5041646;28;20041;-81
2023/07/16 03:40:27;;;;;;;17.00;2.63;;;15.00;99.90;;;;;;5058437;28;20055;-81
2023/07/16 03:42:53;;;;;;;12.45;2.42;;;14.90;99.90;;;;;;5076361;28;20055;-82
2023/07/16 03:45:22;;;;;;;12.27;2.10;;;14.90;99.90;;;;;;5057410;28;20471;-82
2023/07/16 03:47:49;;;;;;;10.27;2.28;;;14.90;99.90;;;;;;5058675;28;20063;-83
2023/07/16 03:50:16;;;;;;;17.95;2.83;;;14.90;99.90;;;;;;5058420;28;20502;-81
2023/07/16 03:52:43;;;;;;;15.23;3.05;;;14.80;99.90;;;;;;5057740;28;20098;-83
2023/07/16 03:55:10;;;;;;;16.13;2.92;;;14.80;99.90;;;;;;5058169;28;20101;-81
2023/07/16 03:57:37;;;;;;;15.63;1.95;;;14.80;99.90;;;;;;5057950;28;20117;-82
2023/07/16 04:00:05;;;;;;;15.68;2.63;;;14.80;99.90;;;;;;5057273;28;20041;-81
2023/07/16 04:02:39;;;;;;;14.35;2.40;;;14.80;99.90;;;;;;5075864;28;20057;-84
2023/07/16 04:05:10;;;;;;;12.68;1.95;;;14.80;99.90;;;;;;5057131;28;20486;-82
2023/07/16 04:07:37;;;;;;;18.13;2.70;;;14.80;99.90;;;;;;5058464;28;20032;-82
2023/07/16 04:10:04;;;;;;;17.50;2.55;;;14.80;99.90;;;;;;5075458;28;20371;-83
2023/07/16 04:12:31;;;;;;;15.45;2.88;;;14.80;99.90;;;;;;5074763;28;20032;-83
2023/07/16 04:14:57;;;;;;;22.05;3.22;;;14.80;99.90;;;;;;5075218;28;20048;-85
2023/07/16 04:17:25;;;;;;;15.25;2.78;;;14.70;99.90;;;;;;5057945;28;20040;-83
2023/07/16 04:19:52;;;;;;;15.20;2.92;;;14.70;99.90;;;;;;5040604;28;20052;-84
2023/07/16 04:22:19;;;;;;;24.70;2.83;;;14.70;99.90;;;;;;5057573;28;20044;-81
2023/07/16 04:24:45;;;;;;;19.05;2.67;;;14.70;99.90;;;;;;5056423;28;20040;-81
2023/07/16 04:27:13;;;;;;;13.57;2.50;;;14.70;99.90;;;;;;5075188;28;20036;-82
2023/07/16 04:29:40;;;;;;;17.48;3.00;;;14.70;99.90;;;;;;5057628;28;20041;-84
2023/07/16 04:32:07;;;;;;;11.52;2.47;;;14.70;99.90;;;;;;5074558;28;20041;-82
2023/07/16 04:34:33;;;;;;;12.55;2.17;;;14.70;99.90;;;;;;5075142;28;20048;-84
2023/07/16 04:39:47;;;;;;;16.60;3.15;;;14.60;99.90;;;;;;5074026;28;20065;-84
2023/07/16 04:42:13;;;;;;;18.00;2.30;;;14.70;99.90;;;;;;5057358;28;20040;-82
2023/07/16 04:44:40;;;;;;;11.85;2.28;;;14.70;99.90;;;;;;5056427;28;20044;-83
2023/07/16 04:47:07;;;;;;;17.98;2.47;;;14.70;99.90;;;;;;5057485;28;20044;-81
2023/07/16 04:49:34;;;;;;;12.02;2.72;;;14.60;99.90;;;;;;5057419;28;20545;-83
2023/07/16 04:52:00;;;;;;;8.25;2.22;;;14.70;99.90;;;;;;5074334;28;20060;-82
2023/07/16 04:54:27;;;;;;;10.38;2.17;;;14.70;99.90;;;;;;5056979;28;20059;-82
2023/07/16 04:56:56;;;;;;;6.45;1.80;;;14.70;99.90;;;;;;5074951;28;20079;-84
2023/07/16 04:59:23;;;;;;;13.13;2.55;;;14.70;99.90;;;;;;5074087;28;20565;-82
2023/07/16 05:01:49;;;;;;;16.10;2.95;;;14.80;99.90;;;;;;5074686;28;20063;-82
2023/07/16 05:04:16;;;;;;;19.73;2.53;;;14.80;99.90;;;;;;5074390;28;20036;-81
2023/07/16 05:06:43;;;;;;;14.63;2.50;;;14.80;99.90;;;;;;5074090;28;20049;-82
2023/07/16 05:09:10;;;;;;;17.95;2.38;;;14.90;99.90;;;;;;5073830;28;20078;-84
2023/07/16 05:11:38;;;;;;;12.82;2.50;;;14.90;99.90;;;;;;5056348;28;20114;-83
2023/07/16 05:14:04;;;;;;;12.38;2.13;;;15.00;99.90;;;;;;5056650;28;20144;-81
2023/07/16 05:16:32;;;;;;;11.95;2.63;;;15.00;99.90;;;;;;5074682;28;20447;-84
2023/07/16 05:18:59;;;;;;;12.95;1.88;;;15.10;99.90;;;;;;5073636;28;20048;-84
2023/07/16 05:21:26;;;;;;;11.75;2.00;;;15.10;99.90;;;;;;5040324;28;20098;-82
2023/07/16 05:23:52;;;;;;;11.55;2.33;;;15.10;99.90;;;;;;5056348;28;20053;-84
2023/07/16 05:26:20;;;;;;;20.42;3.20;;;15.20;99.90;;;;;;5055643;28;20136;-83
2023/07/16 05:28:47;;;;;;;16.52;2.63;;;15.20;99.90;;;;;;5056940;28;20044;-84
2023/07/16 05:31:14;;;;;;;16.55;2.42;;;15.20;99.90;;;;;;5074669;28;20075;-82
2023/07/16 05:33:41;;;;;;;10.50;2.03;;;15.30;99.90;;;;;;5073645;28;20041;-83
2023/07/16 05:36:09;;;;;;;22.52;3.08;;;15.20;99.90;;;;;;5057081;28;20076;-83
2023/07/16 05:38:36;;;;;;;14.60;2.00;;;15.30;99.90;;;;;;5055717;28;20060;-82
2023/07/16 05:41:03;;;;;;;15.13;2.00;;;15.40;99.90;;;;;;5056539;28;20526;-82
2023/07/16 05:43:30;;;;;;;12.30;2.17;;;15.50;99.90;;;;;;5074357;28;20058;-82
2023/07/16 05:45:58;;;;;;;7.85;2.10;;;15.50;99.90;;;;;;5073359;28;20123;-80
2023/07/16 05:48:25;;;;;;;13.68;2.00;;;15.50;99.90;;;;;;5056983;28;20078;-83
2023/07/16 05:50:51;;;;;;;13.25;2.47;;;15.60;99.90;;;;;;5074281;28;20045;-83
2023/07/16 05:53:18;;;;;;;14.55;2.55;;;15.70;99.90;;;;;;5073298;28;20048;-83
2023/07/16 05:58:30;;;;;;;11.98;2.40;;;15.80;99.90;;;;;;5073607;28;20048;-80
2023/07/16 06:00:57;;;;;;;13.90;2.08;;;15.90;99.90;;;;;;5057204;28;20127;-83
2023/07/16 06:03:24;;;;;;;11.38;1.95;;;15.90;99.90;;;;;;5074218;28;20049;-81
2023/07/16 06:05:53;;;;;;;13.73;2.10;;;16.00;99.90;;;;;;5073286;28;20140;-81
2023/07/16 06:08:20;;;;;;;16.83;2.50;;;16.00;99.90;;;;;;5074060;28;20345;-82
2023/07/16 06:10:46;;;;;;;12.43;2.25;;;16.10;99.90;;;;;;5074476;28;20091;-83
2023/07/16 06:13:14;;;;;;;15.32;2.25;;;16.20;99.90;;;;;;5073110;28;20041;-82
2023/07/16 06:15:40;;;;;;;16.85;2.17;;;16.10;99.90;;;;;;5074111;28;20068;-82
2023/07/16 06:18:07;;;;;;;10.82;1.92;;;16.10;99.90;;;;;;5073248;28;20049;-82
2023/07/16 06:20:34;;;;;;;17.23;2.30;;;16.20;99.90;;;;;;5057072;28;20139;-82
2023/07/16 06:23:01;;;;;;;16.17;2.33;;;16.30;99.90;;;;;;5059871;28;20588;-82
2023/07/16 06:28:14;;;;;;;15.02;1.85;;;16.50;99.90;;;;;;5077524;28;20132;-84
2023/07/16 06:30:41;;;;;;;9.30;1.70;;;16.60;99.90;;;;;;5060133;28;20082;-83
2023/07/16 06:33:07;;;;;;;13.52;2.15;;;16.70;99.90;;;;;;5058988;28;20052;-84
2023/07/16 06:38:21;;;;;;;14.13;1.98;;;16.80;99.90;;;;;;5058804;28;20052;-83
2023/07/16 06:40:48;;;;;;;11.40;2.25;;;16.90;99.90;;;;;;5059600;28;20102;-82
2023/07/16 06:43:15;;;;;;;11.20;2.10;;;16.90;99.90;;;;;;5059772;28;20072;-81
2023/07/16 06:45:43;;;;;;;15.88;2.10;;;17.00;99.90;;;;;;5076313;28;20119;-80
2023/07/16 06:48:10;;;;;;;11.50;2.15;;;17.10;99.90;;;;;;5077559;28;20036;-82
2023/07/16 06:50:36;;;;;;;11.43;1.85;;;17.30;99.90;;;;;;5070401;28;20064;-79
2023/07/16 06:53:03;;;;;;;13.63;2.10;;;17.30;99.90;;;;;;5040062;28;20052;-82
2023/07/16 06:58:17;;;;;;;12.50;2.30;;;17.30;99.90;;;;;;5076130;28;20106;-83
2023/07/16 07:00:44;;;;;;;10.23;1.98;;;17.30;99.90;;;;;;5059675;28;20041;-81
2023/07/16 07:03:11;;;;;;;13.82;2.17;;;17.30;99.90;;;;;;5076784;28;20083;-85
2023/07/16 07:05:39;;;;;;;17.90;2.15;;;17.30;99.90;;;;;;5058706;28;20040;-82
2023/07/16 07:08:06;;;;;;;8.88;1.63;;;17.20;99.90;;;;;;5076645;28;20044;-82
2023/07/16 07:10:32;;;;;;;12.15;1.92;;;17.20;99.90;;;;;;5076656;28;20131;-84
2023/07/16 07:12:59;;;;;;;12.73;2.17;;;17.30;99.90;;;;;;5058559;28;20386;-84
2023/07/16 07:15:26;;;;;;;8.70;1.67;;;17.40;99.90;;;;;;5059062;28;20068;-82
2023/07/16 07:17:53;;;;;;;11.90;2.10;;;17.50;99.90;;;;;;5077005;28;20502;-84
2023/07/16 07:20:19;;;;;;;14.75;2.00;;;17.60;99.90;;;;;;5058017;28;20040;-86
2023/07/16 07:22:46;;;;;;;17.60;2.30;;;17.70;99.90;;;;;;5058761;28;20044;-82
2023/07/16 07:25:15;;;;;;;9.77;2.10;;;18.00;99.90;;;;;;5075469;28;20055;-85
2023/07/16 07:27:42;;;;;;;13.52;2.03;;;17.80;99.90;;;;;;5076402;28;20036;-84
2023/07/16 07:30:08;;;;;;;10.77;2.20;;;17.80;99.90;;;;;;5076518;28;20426;-85
2023/07/16 07:32:35;;;;;;;9.05;1.80;;;17.80;99.90;;;;;;5057148;28;20048;-84
2023/07/16 07:35:02;;;;;;;12.77;2.05;;;17.90;99.90;;;;;;5058549;28;20054;-84
2023/07/16 07:37:29;;;;;;;6.50;1.90;;;18.10;99.90;;;;;;5042337;28;20367;-83
2023/07/16 07:39:56;;;;;;;11.18;2.22;;;18.30;99.90;;;;;;5075124;28;20105;-82
2023/07/16 07:42:23;;;;;;;12.23;1.83;;;18.40;99.90;;;;;;5076042;28;20055;-82
2023/07/16 07:44:52;;;;;;;13.55;1.75;;;18.20;99.90;;;;;;5057322;28;20243;-83
2023/07/16 07:47:20;;;;;;;8.48;1.73;;;18.30;99.90;;;;;;5058569;28;20102;-81
2023/07/16 07:49:47;;;;;;;7.65;1.67;;;18.40;99.90;;;;;;5076778;28;20051;-84
2023/07/16 07:52:13;;;;;;;14.80;2.25;;;18.40;99.90;;;;;;5057781;28;20064;-81
2023/07/16 07:54:40;;;;;;;12.73;1.88;;;18.20;99.90;;;;;;5058274;28;20048;-85
2023/07/16 07:57:07;;;;;;;7.88;1.70;;;18.30;99.90;;;;;;5058328;28;20044;-82
2023/07/16 07:59:34;;;;;;;15.93;1.58;;;18.50;99.90;;;;;;5074816;28;20052;-85
2023/07/16 08:02:01;;;;;;;11.93;1.88;;;18.70;99.90;;;;;;5075877;28;20093;-84
2023/07/16 08:04:28;;;;;;;11.43;2.15;;;18.90;99.90;;;;;;5075287;28;20090;-85
2023/07/16 08:06:57;;;;;;;9.07;1.67;;;19.00;99.90;;;;;;5074536;28;20041;-84
2023/07/16 08:09:24;;;;;;;11.65;1.75;;;19.10;99.90;;;;;;5041409;28;20048;-83
2023/07/16 08:11:50;;;;;;;6.70;1.58;;;19.30;99.90;;;;;;5057122;28;20123;-83
2023/07/16 08:14:17;;;;;;;6.68;1.48;;;19.20;99.90;;;;;;5075405;28;20040;-83
2023/07/16 08:16:46;;;;;;;8.60;2.03;;;19.10;99.90;;;;;;5041502;28;20083;-85
2023/07/16 08:19:13;;;;;;;9.77;1.70;;;19.20;99.90;;;;;;5040683;28;20701;-82
2023/07/16 08:21:39;;;;;;;8.90;1.75;;;19.30;99.90;;;;;;5059193;28;20056;-85
2023/07/16 08:24:06;;;;;;;10.15;1.50;;;19.30;99.90;;;;;;5037562;28;20041;-85
2023/07/16 08:29:05;;;;;;;7.53;1.50;;;19.40;99.90;;;;;;5055266;28;20430;-83
2023/07/16 08:31:32;;;;;;;9.05;2.13;;;19.40;99.90;;;;;;5037392;28;20069;-83
2023/07/16 08:33:59;;;;;;;14.00;2.15;;;19.30;99.90;;;;;;5054902;28;20047;-85
2023/07/16 08:39:19;;;;;;;8.63;1.88;;;19.10;99.90;;;;;;5036523;28;20123;-83
2023/07/16 08:41:47;;;;;;;12.52;2.15;;;19.10;99.90;;;;;;5037334;28;20041;-84
2023/07/16 08:44:14;;;;;;;11.63;2.25;;;19.20;99.90;;;;;;5037324;28;20130;-83
2023/07/16 08:46:41;;;;;;;8.98;1.55;;;19.30;99.90;;;;;;5054160;28;20102;-84
2023/07/16 08:49:07;;;;;;;8.85;1.55;;;19.30;99.90;;;;;;5037660;28;20136;-82
2023/07/16 08:51:34;;;;;;;12.68;2.22;;;19.30;99.90;;;;;;5036521;28;20068;-82
2023/07/16 08:54:00;;;;;;;8.57;2.03;;;19.50;99.90;;;;;;5037129;28;20075;-84
2023/07/16 08:56:30;;;;;;;7.53;1.60;;;19.50;99.90;;;;;;5054915;28;20044;-84
2023/07/16 08:58:56;;;;;;;6.80;1.50;;;19.70;99.90;;;;;;5054077;28;20110;-84
2023/07/16 09:01:23;;;;;;;12.20;2.05;;;20.00;99.90;;;;;;5020833;28;20061;-84
2023/07/16 09:03:50;;;;;;;8.90;1.90;;;19.80;99.90;;;;;;5054323;28;20094;-81
2023/07/16 09:06:17;;;;;;;8.85;1.88;;;20.10;99.90;;;;;;5053947;28;20041;-84
2023/07/16 09:08:45;;;;;;;7.85;1.63;;;20.30;99.90;;;;;;5020985;28;20037;-81
2023/07/16 09:11:13;;;;;;;7.88;1.60;;;20.40;99.90;;;;;;5037477;28;20044;-83
2023/07/16 09:13:39;;;;;;;9.05;1.88;;;20.50;99.90;;;;;;5053600;28;20456;-81
2023/07/16 09:16:07;;;;;;;9.50;1.92;;;20.60;99.90;;;;;;5037039;28;20451;-82
2023/07/16 09:18:34;;;;;;;5.45;1.60;;;20.60;99.90;;;;;;5036377;28;20053;-80
2023/07/16 09:21:06;;;;;;;7.97;1.45;;;20.20;99.90;;;;;;5054449;28;20102;-86
2023/07/16 09:23:32;;;;;;;7.50;1.45;;;19.90;99.90;;;;;;5054647;28;20082;-82
2023/07/16 09:26:00;;;;;;;8.90;1.80;;;19.80;99.90;;;;;;5073266;28;20131;-85
2023/07/16 09:28:27;;;;;;;8.63;1.58;;;19.80;99.90;;;;;;5074341;28;20033;-84
2023/07/16 09:30:54;;;;;;;7.97;2.08;;;19.90;99.90;;;;;;5056660;28;20459;-83
2023/07/16 09:33:21;;;;;;;5.20;1.70;;;20.10;99.90;;;;;;5073723;28;20033;-86
2023/07/16 09:35:48;;;;;;;9.00;1.58;;;20.10;99.90;;;;;;5069221;28;20044;-84
2023/07/16 09:38:14;;;;;;;9.07;1.65;;;20.30;99.90;;;;;;5075595;28;20040;-83
2023/07/16 09:40:42;;;;;;;7.78;1.42;;;20.70;99.90;;;;;;5076887;28;20048;-85
2023/07/16 09:43:09;;;;;;;11.48;1.95;;;20.60;99.90;;;;;;5076346;28;20059;-85
2023/07/16 09:48:39;;;;;;;4.45;1.30;;;20.80;99.90;;;;;;5094371;28;20027;-83
2023/07/16 09:51:06;;;;;;;9.68;1.67;;;21.20;99.90;;;;;;5094368;28;20040;-83
2023/07/16 09:53:33;;;;;;;6.60;1.40;;;21.50;99.90;;;;;;5076003;28;20055;-84
2023/07/16 09:56:02;;;;;;;4.32;1.52;;;21.40;99.90;;;;;;5078000;28;20040;-83
2023/07/16 09:58:28;;;;;;;6.28;1.42;;;21.30;99.90;;;;;;5097516;28;20127;-83
2023/07/16 10:00:55;;;;;;;10.50;1.52;;;21.20;99.90;;;;;;5063605;28;20351;-84
2023/07/16 10:03:22;;;;;;;8.57;1.70;;;21.30;99.90;;;;;;5080257;28;20424;-83
2023/07/16 10:05:51;;;;;;;6.40;1.58;;;21.40;99.90;;;;;;5079622;28;20097;-82
2023/07/16 10:08:18;;;;;;;7.90;1.48;;;21.40;99.90;;;;;;5098304;28;20225;-82
2023/07/16 10:10:44;;;;;;;7.90;1.30;;;21.20;99.90;;;;;;5097920;28;20424;-83
2023/07/16 10:13:11;;;;;;;10.23;1.77;;;20.90;99.90;;;;;;5096977;28;20036;-82
2023/07/16 10:15:38;;;;;;;6.32;1.48;;;20.80;99.90;;;;;;5063366;28;20450;-84
2023/07/16 10:18:05;;;;;;;7.18;1.45;;;21.30;99.90;;;;;;5079430;28;20060;-83
2023/07/16 10:20:32;;;;;;;10.88;1.85;;;21.80;99.90;;;;;;5097812;28;20090;-83
2023/07/16 10:22:58;;;;;;;6.60;1.63;;;21.70;99.90;;;;;;5063227;28;20044;-84
2023/07/16 10:25:27;;;;;;;7.13;1.65;;;21.90;99.90;;;;;;5078829;28;20044;-82
2023/07/16 10:27:53;;;;;;;9.25;2.35;;;22.10;99.90;;;;;;5087840;28;20041;-83
2023/07/16 10:30:20;;;;;;;12.00;2.05;;;21.90;99.90;;;;;;5077220;28;20041;-83
2023/07/16 10:32:47;;;;;;;10.95;1.90;;;21.90;99.90;;;;;;5058911;28;20037;-84
2023/07/16 10:35:14;;;;;;;9.30;2.45;;;21.80;99.90;;;;;;5077265;28;20132;-82
2023/07/16 10:37:40;;;;;;;10.05;2.03;;;21.70;99.90;;;;;;5077335;28;20044;-83
2023/07/16 10:40:07;;;;;;;12.73;1.50;;;21.80;99.90;;;;;;5076557;28;20075;-82
2023/07/16 10:42:34;;;;;;;11.35;1.85;;;21.80;99.90;;;;;;5059612;28;20048;-83
2023/07/16 10:47:50;;;;;;;7.60;1.70;;;22.40;99.90;;;;;;5059722;28;20060;-84
2023/07/16 10:50:17;;;;;;;10.90;2.50;;;22.60;99.90;;;;;;5059497;28;20048;-85
2023/07/16 10:52:47;;;;;;;4.78;1.35;;;22.40;99.90;;;;;;5075904;28;20041;-89
2023/07/16 10:55:16;;;;;;;8.55;2.25;;;22.60;99.90;;;;;;5059923;28;20143;-89
2023/07/16 10:57:58;;;;;;;7.07;1.50;;;22.50;99.90;;;;;;5077219;28;20041;-91
2023/07/16 11:00:28;;;;;;;7.90;1.98;;;22.90;99.90;;;;;;5043094;28;20293;-88
2023/07/16 11:02:55;;;;;;;16.50;4.43;;;22.80;99.90;;;;;;5058554;28;20053;-89
2023/07/16 11:08:11;;;;;;;11.27;3.15;;;22.90;99.90;;;;;;5076924;28;20489;-89
2023/07/16 11:10:38;;;;;;;8.57;1.77;;;22.70;99.90;;;;;;5058498;28;20048;-87
2023/07/16 11:13:08;;;;;;;8.57;1.83;;;22.10;99.90;;;;;;5042147;28;20110;-87
2023/07/16 11:19:03;;;;;;;13.77;2.47;;;22.90;99.90;;;;;;5075839;28;20027;-89
2023/07/16 11:21:29;;;;;;;11.23;2.38;;;22.10;99.90;;;;;;5042705;28;20454;-87
2023/07/16 11:23:56;;;;;;;10.73;2.47;;;21.80;99.90;;;;;;5042668;28;20093;-86
2023/07/16 11:26:25;;;;;;;12.98;2.20;;;22.50;99.90;;;;;;5076159;28;20127;-89
2023/07/16 11:28:52;;;;;;;13.93;2.53;;;22.60;99.90;;;;;;5061741;28;20036;-87
2023/07/16 11:31:18;;;;;;;7.00;1.92;;;22.70;99.90;;;;;;5075832;28;20037;-86
2023/07/16 11:33:49;;;;;;;8.73;1.97;;;23.50;99.90;;;;;;5076542;28;20463;-88
2023/07/16 11:36:16;;;;;;;12.02;2.97;;;24.60;99.90;;;;;;5076356;28;20040;-85
2023/07/16 11:38:43;;;;;;;15.52;2.90;;;25.10;99.90;;;;;;5057469;28;20109;-86
2023/07/16 11:41:10;;;;;;;7.90;2.10;;;25.20;99.90;;;;;;5058626;28;20463;-84
2023/07/16 11:43:37;;;;;;;10.50;2.83;;;24.50;99.90;;;;;;5058096;28;20052;-85
2023/07/16 11:49:06;;;;;;;9.98;2.55;;;24.70;99.90;;;;;;5058505;28;20040;-87
2023/07/16 11:51:33;;;;;;;9.48;2.33;;;24.90;99.90;;;;;;5069444;28;20044;-87
2023/07/16 11:54:00;;;;;;;11.90;2.47;;;24.60;99.90;;;;;;5021929;28;20099;-85
2023/07/16 11:59:12;;;;;;;10.13;2.38;;;25.20;99.90;;;;;;5055194;28;20044;-87
2023/07/16 12:01:40;;;;;;;12.05;2.97;;;25.10;99.90;;;;;;5038363;28;20056;-83
2023/07/16 12:04:06;;;;;;;8.05;2.50;;;25.80;99.90;;;;;;5055149;28;20045;-85
2023/07/16 12:09:03;;;;;;;10.23;2.50;;;25.60;99.90;;;;;;5055311;28;20044;-85
2023/07/16 12:11:30;;;;;;;10.68;2.40;;;25.70;99.90;;;;;;5037069;28;20468;-82
2023/07/16 12:13:57;;;;;;;13.05;3.00;;;26.20;99.90;;;;;;5038015;28;20052;-86
2023/07/16 12:16:24;;;;;;;10.68;2.90;;;26.20;99.90;;;;;;5055556;28;20092;-86
2023/07/16 12:18:51;;;;;;;12.45;2.92;;;25.80;99.90;;;;;;5020523;28;20135;-85
2023/07/16 12:21:17;;;;;;;11.38;2.75;;;24.80;99.90;;;;;;5038408;28;20411;-83
2023/07/16 12:23:44;;;;;;;15.38;3.08;;;24.60;99.90;;;;;;5021478;28;20045;-88
2023/07/16 12:28:57;;;;;;;9.77;2.75;;;24.40;99.90;;;;;;5038187;28;20052;-85
2023/07/16 12:31:24;;;;;;;8.55;2.55;;;24.80;99.90;;;;;;5037609;28;20049;-86
2023/07/16 12:33:51;;;;;;;10.35;2.28;;;25.00;99.90;;;;;;5037668;28;20041;-85
2023/07/16 12:39:23;;;;;;;10.95;2.40;;;25.20;99.90;;;;;;5037105;28;20045;-84
2023/07/16 12:41:49;;;;;;;8.38;2.30;;;25.00;99.90;;;;;;5064871;28;20036;-84
2023/07/16 12:44:16;;;;;;;8.73;2.20;;;25.10;99.90;;;;;;5094956;28;20085;-83
2023/07/16 12:46:44;;;;;;;11.48;2.70;;;25.50;99.90;;;;;;5094655;28;20036;-87
2023/07/16 12:49:11;;;;;;;10.93;2.45;;;25.70;99.90;;;;;;5077307;28;20428;-84
2023/07/16 12:51:38;;;;;;;8.80;2.13;;;26.00;99.90;;;;;;5061880;28;20040;-81
2023/07/16 12:54:04;;;;;;;7.70;2.80;;;26.20;99.90;;;;;;5056606;28;20120;-81
2023/07/16 12:56:32;;;;;;;12.13;2.40;;;25.90;99.90;;;;;;5074567;28;20455;-81
2023/07/16 12:58:59;;;;;;;12.40;2.60;;;25.50;99.90;;;;;;5073910;28;20048;-81
2023/07/16 13:01:26;;;;;;;11.05;2.80;;;25.00;99.90;;;;;;5057062;28;20068;-81
2023/07/16 13:03:52;;;;;;;13.55;2.70;;;25.10;99.90;;;;;;5056365;28;20475;-82
2023/07/16 13:06:19;;;;;;;11.52;2.70;;;25.20;99.90;;;;;;5037227;28;20041;-82
2023/07/16 13:08:46;;;;;;;11.32;2.90;;;25.30;99.90;;;;;;5056009;28;20075;-80
2023/07/16 13:11:13;;;;;;;10.68;3.17;;;25.30;99.90;;;;;;5073455;28;20110;-80
2023/07/16 13:13:41;;;;;;;9.05;2.67;;;25.30;99.90;;;;;;5072429;28;20401;-81
2023/07/16 13:18:53;;;;;;;10.13;2.90;;;24.50;99.90;;;;;;5072915;28;20040;-80
2023/07/16 13:21:20;;;;;;;11.50;2.72;;;24.60;99.90;;;;;;5074011;28;20383;-83
2023/07/16 13:23:47;;;;;;;9.50;2.92;;;24.50;99.90;;;;;;5055604;28;20055;-81
2023/07/16 13:26:15;;;;;;;12.73;3.00;;;24.60;99.90;;;;;;5072633;28;20098;-82
2023/07/16 13:28:42;;;;;;;9.38;2.88;;;24.60;99.90;;;;;;5056002;28;20072;-80
2023/07/16 13:31:09;;;;;;;10.95;3.28;;;24.40;99.90;;;;;;5075594;28;20040;-81
2023/07/16 13:33:36;;;;;;;12.30;2.92;;;24.10;99.90;;;;;;5059288;28;20055;-82
2023/07/16 13:36:04;;;;;;;8.07;2.10;;;24.30;99.90;;;;;;5077773;28;20127;-81
2023/07/16 13:38:31;;;;;;;10.05;2.55;;;24.40;99.90;;;;;;5075148;28;20059;-81